Time;durP1;ratioP1;P1;durP2;ratioP2;P2;SDS_P1;SDS_P2;PMS_P1;PMS_P2;Temp;Humidity;BMP_temperature;BMP_pressure;BME280_temperature;BME280_humidity;BME280_pressure;Samples;Min_cycle;Max_cycle;Signal;HPM_P1;HPM_P2
2022/04/08 00:00:23;;;;;;;0.90;0.70;;;;;;;;;;4952541;29;20034;-78
2022/04/08 00:02:50;;;;;;;5.68;4.18;;;;;;;;;;4956223;29;20031;-78
2022/04/08 00:05:16;;;;;;;2.17;1.30;;;;;;;;;;4952433;29;20038;-78
2022/04/08 00:07:43;;;;;;;2.10;1.35;;;;;;;;;;4951632;29;20530;-78
2022/04/08 00:10:10;;;;;;;1.83;1.40;;;;;;;;;;4952093;29;20015;-78
2022/04/08 00:12:36;;;;;;;2.45;2.00;;;;;;;;;;4951841;29;20404;-78
2022/04/08 00:15:04;;;;;;;3.60;1.83;;;;;;;;;;4953972;28;20031;-78
2022/04/08 00:17:30;;;;;;;1.48;0.70;;;;;;;;;;4951716;29;20396;-78
2022/04/08 00:19:57;;;;;;;1.33;0.95;;;;;;;;;;4952042;29;20030;-78
2022/04/08 00:22:24;;;;;;;1.98;1.33;;;;;;;;;;4951392;29;20027;-78
2022/04/08 00:24:50;;;;;;;1.67;1.00;;;;;;;;;;4951862;29;20031;-78
2022/04/08 00:27:17;;;;;;;1.27;1.17;;;;;;;;;;4952927;29;20047;-78
2022/04/08 00:29:43;;;;;;;0.98;0.70;;;;;;;;;;4954964;29;20027;-78
2022/04/08 00:32:10;;;;;;;1.63;0.80;;;;;;;;;;4952147;29;20448;-77
2022/04/08 00:34:36;;;;;;;1.33;1.23;;;;;;;;;;4939769;29;20385;-78
2022/04/08 00:37:02;;;;;;;1.10;0.90;;;;;;;;;;4951452;29;20041;-77
2022/04/08 00:39:29;;;;;;;1.08;0.70;;;;;;;;;;4951698;29;20128;-78
2022/04/08 00:41:55;;;;;;;0.77;0.77;;;;;;;;;;4955539;29;20041;-78
2022/04/08 00:44:21;;;;;;;1.60;1.50;;;;;;;;;;4952608;29;20020;-78
2022/04/08 00:46:48;;;;;;;1.08;0.93;;;;;;;;;;4945340;29;20035;-78
2022/04/08 00:49:14;;;;;;;1.45;0.90;;;;;;;;;;4951090;29;20496;-77
2022/04/08 00:51:41;;;;;;;1.10;0.40;;;;;;;;;;4951093;29;20024;-78
2022/04/08 00:54:09;;;;;;;2.33;0.43;;;;;;;;;;4953501;29;20016;-78
2022/04/08 00:56:35;;;;;;;0.40;0.30;;;;;;;;;;4953661;29;20037;-78
2022/04/08 00:59:02;;;;;;;0.30;0.30;;;;;;;;;;4951784;29;20037;-78
2022/04/08 01:01:28;;;;;;;0.25;0.25;;;;;;;;;;4942549;29;20039;-78
2022/04/08 01:03:57;;;;;;;0.32;0.20;;;;;;;;;;4950872;29;20050;-77
2022/04/08 01:06:25;;;;;;;0.28;0.17;;;;;;;;;;4951316;29;20035;-77
2022/04/08 01:08:52;;;;;;;2.28;0.40;;;;;;;;;;4955447;29;20085;-78
2022/04/08 01:11:19;;;;;;;0.30;0.30;;;;;;;;;;4951243;29;20030;-78
2022/04/08 01:13:46;;;;;;;0.20;0.20;;;;;;;;;;4950645;29;20031;-78
2022/04/08 01:16:12;;;;;;;0.63;0.32;;;;;;;;;;4950940;29;20452;-78
2022/04/08 01:18:39;;;;;;;0.60;0.60;;;;;;;;;;4950712;29;20389;-78
2022/04/08 01:21:06;;;;;;;0.57;0.30;;;;;;;;;;4942819;29;20501;-78
2022/04/08 01:23:34;;;;;;;1.35;0.70;;;;;;;;;;4952560;29;20027;-78
2022/04/08 01:26:03;;;;;;;3.72;0.85;;;;;;;;;;4951119;28;20035;-78
2022/04/08 01:28:29;;;;;;;0.55;0.40;;;;;;;;;;4950349;29;20398;-78
2022/04/08 01:30:56;;;;;;;1.88;0.90;;;;;;;;;;4950833;29;20041;-78
2022/04/08 01:33:22;;;;;;;0.20;0.20;;;;;;;;;;4951061;29;20497;-77
2022/04/08 01:35:49;;;;;;;1.45;0.35;;;;;;;;;;4953928;29;20514;-78
2022/04/08 01:38:15;;;;;;;0.93;0.40;;;;;;;;;;4950916;29;20380;-78
2022/04/08 01:40:41;;;;;;;0.50;0.40;;;;;;;;;;4950086;29;20034;-78
2022/04/08 01:43:08;;;;;;;1.00;0.30;;;;;;;;;;4950222;29;20035;-78
2022/04/08 01:45:34;;;;;;;0.40;0.40;;;;;;;;;;4942334;29;20042;-78
2022/04/08 01:48:03;;;;;;;1.00;0.68;;;;;;;;;;4953504;29;20057;-78
2022/04/08 01:50:29;;;;;;;0.57;0.50;;;;;;;;;;4951393;29;20484;-77
2022/04/08 01:52:56;;;;;;;0.20;0.20;;;;;;;;;;4953817;29;20023;-78
2022/04/08 01:55:22;;;;;;;0.28;0.28;;;;;;;;;;4936985;29;20518;-78
2022/04/08 01:57:48;;;;;;;2.70;0.30;;;;;;;;;;4949955;29;20023;-78
2022/04/08 02:00:15;;;;;;;0.43;0.40;;;;;;;;;;4951423;29;20038;-78
2022/04/08 02:02:41;;;;;;;0.20;0.20;;;;;;;;;;4952826;29;20090;-78
2022/04/08 02:05:08;;;;;;;0.45;0.30;;;;;;;;;;4950183;29;20380;-78
2022/04/08 02:07:34;;;;;;;0.47;0.28;;;;;;;;;;4950063;29;20019;-77
2022/04/08 02:10:01;;;;;;;0.60;0.30;;;;;;;;;;4949788;29;20036;-77
2022/04/08 02:12:27;;;;;;;0.40;0.40;;;;;;;;;;4939880;29;20038;-78
2022/04/08 02:14:54;;;;;;;0.43;0.20;;;;;;;;;;4954094;29;20019;-77
2022/04/08 02:17:20;;;;;;;0.10;0.10;;;;;;;;;;4950454;29;20058;-77
2022/04/08 02:19:47;;;;;;;0.32;0.30;;;;;;;;;;4949262;29;20508;-78
2022/04/08 02:22:13;;;;;;;1.13;0.40;;;;;;;;;;4949769;29;20043;-78
2022/04/08 02:24:39;;;;;;;0.95;0.20;;;;;;;;;;4949494;29;20032;-78
2022/04/08 02:27:06;;;;;;;1.02;0.30;;;;;;;;;;4952098;29;20011;-78
2022/04/08 02:29:33;;;;;;;0.32;0.30;;;;;;;;;;4951506;29;20481;-78
2022/04/08 02:32:00;;;;;;;0.20;0.20;;;;;;;;;;4949902;29;20034;-78
2022/04/08 02:34:26;;;;;;;0.40;0.30;;;;;;;;;;4948932;29;20031;-78
2022/04/08 02:36:53;;;;;;;0.60;0.30;;;;;;;;;;4949179;29;20027;-78
2022/04/08 02:39:19;;;;;;;0.85;0.80;;;;;;;;;;4950341;29;20507;-78
2022/04/08 02:41:45;;;;;;;0.20;0.20;;;;;;;;;;4952778;29;20039;-78
2022/04/08 02:44:12;;;;;;;2.85;0.75;;;;;;;;;;4950307;29;20046;-78
2022/04/08 02:46:38;;;;;;;0.40;0.35;;;;;;;;;;4949277;29;20027;-78
2022/04/08 02:49:04;;;;;;;0.47;0.30;;;;;;;;;;4949018;29;20027;-78
2022/04/08 02:51:31;;;;;;;5.63;3.17;;;;;;;;;;4949184;29;20028;-78
2022/04/08 02:53:57;;;;;;;2.35;1.15;;;;;;;;;;4953253;29;20031;-78
2022/04/08 02:56:23;;;;;;;4.03;2.53;;;;;;;;;;4950297;29;20035;-77
2022/04/08 02:58:50;;;;;;;2.63;1.35;;;;;;;;;;4953523;29;20515;-78
2022/04/08 03:01:16;;;;;;;0.73;0.43;;;;;;;;;;4949008;29;20037;-78
2022/04/08 03:03:43;;;;;;;2.28;0.40;;;;;;;;;;4949021;29;20042;-78
2022/04/08 03:06:09;;;;;;;0.55;0.20;;;;;;;;;;4951471;29;20073;-78
2022/04/08 03:08:36;;;;;;;1.23;0.55;;;;;;;;;;4951383;29;20027;-78
2022/04/08 03:11:02;;;;;;;0.30;0.30;;;;;;;;;;4945423;29;20110;-78
2022/04/08 03:13:28;;;;;;;0.52;0.30;;;;;;;;;;4948802;29;20035;-78
2022/04/08 03:15:55;;;;;;;0.68;0.25;;;;;;;;;;4948734;29;20020;-78
2022/04/08 03:18:21;;;;;;;2.05;0.28;;;;;;;;;;4949512;29;20106;-78
2022/04/08 03:20:47;;;;;;;1.55;0.47;;;;;;;;;;4952732;29;20034;-78
2022/04/08 03:23:14;;;;;;;1.00;0.47;;;;;;;;;;4949666;29;20034;-78
2022/04/08 03:25:40;;;;;;;0.47;0.47;;;;;;;;;;4948917;29;20019;-78
2022/04/08 03:28:08;;;;;;;0.93;0.50;;;;;;;;;;4937415;29;20097;-78
2022/04/08 03:30:34;;;;;;;0.77;0.50;;;;;;;;;;4943272;29;20408;-78
2022/04/08 03:33:01;;;;;;;0.35;0.35;;;;;;;;;;4952446;29;20085;-78
2022/04/08 03:35:27;;;;;;;0.45;0.30;;;;;;;;;;4950399;29;20023;-78
2022/04/08 03:37:53;;;;;;;1.27;0.40;;;;;;;;;;4949040;29;20023;-78
2022/04/08 03:40:20;;;;;;;1.27;0.55;;;;;;;;;;4948886;29;20031;-78
2022/04/08 03:42:46;;;;;;;1.02;0.40;;;;;;;;;;4948647;29;20034;-78
2022/04/08 03:45:16;;;;;;;0.68;0.32;;;;;;;;;;4949932;29;20023;-78
2022/04/08 03:47:42;;;;;;;1.83;0.50;;;;;;;;;;4951841;28;20045;-78
2022/04/08 03:50:08;;;;;;;2.30;0.60;;;;;;;;;;4951878;29;20023;-78
2022/04/08 03:52:35;;;;;;;0.85;0.52;;;;;;;;;;4952157;29;20037;-78
2022/04/08 03:55:02;;;;;;;2.22;0.50;;;;;;;;;;4952124;29;20027;-78
2022/04/08 03:57:29;;;;;;;0.88;0.40;;;;;;;;;;4952112;29;20039;-78
2022/04/08 03:59:55;;;;;;;1.60;1.10;;;;;;;;;;4955831;29;20427;-78
2022/04/08 04:02:22;;;;;;;6.15;2.00;;;;;;;;;;4953105;29;20404;-78
2022/04/08 04:04:49;;;;;;;3.38;1.42;;;;;;;;;;4952041;29;20035;-78
2022/04/08 04:07:15;;;;;;;4.97;2.53;;;;;;;;;;4951949;29;20038;-78
2022/04/08 04:09:42;;;;;;;10.95;3.92;;;;;;;;;;4952184;29;20019;-78
2022/04/08 04:12:09;;;;;;;1.13;0.47;;;;;;;;;;4954252;29;20033;-78
2022/04/08 04:14:35;;;;;;;0.63;0.40;;;;;;;;;;4953972;29;20033;-78
2022/04/08 04:17:02;;;;;;;1.45;0.95;;;;;;;;;;4952413;29;20042;-78
2022/04/08 04:19:28;;;;;;;1.20;1.10;;;;;;;;;;4951845;29;20495;-78
2022/04/08 04:21:54;;;;;;;0.70;0.70;;;;;;;;;;4951592;29;20047;-78
2022/04/08 04:24:21;;;;;;;2.25;0.93;;;;;;;;;;4952226;29;20031;-78
2022/04/08 04:26:47;;;;;;;0.45;0.40;;;;;;;;;;4955706;29;20027;-78
2022/04/08 04:29:13;;;;;;;2.63;0.60;;;;;;;;;;4951685;29;20504;-78
2022/04/08 04:31:40;;;;;;;0.40;0.40;;;;;;;;;;4938727;29;20039;-78
2022/04/08 04:34:06;;;;;;;1.10;0.65;;;;;;;;;;4951672;29;20027;-78
2022/04/08 04:36:32;;;;;;;1.30;0.70;;;;;;;;;;4951431;29;20038;-78
2022/04/08 04:38:59;;;;;;;4.60;1.20;;;;;;;;;;4955022;29;20081;-78
2022/04/08 04:41:25;;;;;;;3.35;0.80;;;;;;;;;;4952340;29;20043;-78
2022/04/08 04:43:52;;;;;;;1.92;0.93;;;;;;;;;;4951311;29;20073;-78
2022/04/08 04:46:18;;;;;;;2.75;0.73;;;;;;;;;;4951395;29;20033;-77
2022/04/08 04:48:45;;;;;;;1.95;0.93;;;;;;;;;;4951274;29;20030;-78
2022/04/08 04:51:13;;;;;;;2.92;0.80;;;;;;;;;;4952925;29;20407;-78
2022/04/08 04:53:40;;;;;;;4.68;1.30;;;;;;;;;;4954126;29;20107;-78
2022/04/08 04:56:06;;;;;;;3.30;1.50;;;;;;;;;;4951477;29;20031;-78
2022/04/08 04:58:32;;;;;;;12.07;3.13;;;;;;;;;;4950656;29;20031;-78
2022/04/08 05:00:59;;;;;;;5.70;1.98;;;;;;;;;;4950531;28;20386;-78
2022/04/08 05:03:25;;;;;;;4.07;1.30;;;;;;;;;;4950989;29;20028;-78
2022/04/08 05:05:53;;;;;;;4.43;1.40;;;;;;;;;;4955496;29;20476;-78
2022/04/08 05:08:23;;;;;;;1.63;0.98;;;;;;;;;;4951894;29;20412;-78
2022/04/08 05:10:49;;;;;;;2.88;1.15;;;;;;;;;;4955658;29;20023;-78
2022/04/08 05:13:15;;;;;;;2.90;0.90;;;;;;;;;;4950562;29;20030;-78
2022/04/08 05:15:45;;;;;;;2.67;1.20;;;;;;;;;;4950759;29;20040;-78
2022/04/08 05:18:11;;;;;;;3.65;1.25;;;;;;;;;;4944735;29;20487;-78
2022/04/08 05:20:38;;;;;;;5.47;2.05;;;;;;;;;;4954844;29;20097;-78
2022/04/08 05:23:04;;;;;;;18.85;8.85;;;;;;;;;;4951015;29;20073;-78
2022/04/08 05:25:31;;;;;;;24.65;15.32;;;;;;;;;;4950741;29;20085;-78
2022/04/08 05:27:57;;;;;;;26.58;16.10;;;;;;;;;;4949852;29;20047;-78
2022/04/08 05:30:24;;;;;;;16.63;10.60;;;;;;;;;;4950767;29;20046;-78
2022/04/08 05:32:52;;;;;;;4.25;2.95;;;;;;;;;;4939561;29;20043;-78
2022/04/08 05:35:19;;;;;;;10.10;4.55;;;;;;;;;;4950781;29;20407;-78
2022/04/08 05:37:46;;;;;;;9.55;5.50;;;;;;;;;;4950023;29;20031;-78
2022/04/08 05:40:16;;;;;;;4.53;1.80;;;;;;;;;;4950237;29;20035;-78
2022/04/08 05:42:44;;;;;;;3.30;1.40;;;;;;;;;;4949740;29;20043;-78
2022/04/08 05:45:11;;;;;;;2.97;1.10;;;;;;;;;;4952156;29;20400;-78
2022/04/08 05:47:38;;;;;;;3.72;1.02;;;;;;;;;;4952832;29;20027;-78
2022/04/08 05:50:05;;;;;;;6.57;1.48;;;;;;;;;;4953133;29;20035;-78
2022/04/08 05:52:31;;;;;;;7.07;1.48;;;;;;;;;;4950402;29;20023;-78
2022/04/08 05:54:57;;;;;;;1.98;1.27;;;;;;;;;;4950066;29;20035;-78
2022/04/08 05:57:24;;;;;;;8.43;4.97;;;;;;;;;;4950019;29;20020;-77
2022/04/08 05:59:50;;;;;;;9.38;6.68;;;;;;;;;;4954126;29;20440;-78
2022/04/08 06:02:17;;;;;;;4.57;3.45;;;;;;;;;;4950322;29;20049;-78
2022/04/08 06:04:43;;;;;;;3.30;1.70;;;;;;;;;;4949986;29;20031;-78
2022/04/08 06:07:10;;;;;;;7.32;1.40;;;;;;;;;;4950447;29;20045;-78
2022/04/08 06:09:36;;;;;;;5.22;1.83;;;;;;;;;;4949129;29;20489;-78
2022/04/08 06:12:02;;;;;;;2.80;1.38;;;;;;;;;;4951464;28;20034;-77
2022/04/08 06:14:30;;;;;;;4.05;1.60;;;;;;;;;;4953301;29;20011;-78
2022/04/08 06:16:56;;;;;;;3.25;2.10;;;;;;;;;;4953649;29;20023;-77
2022/04/08 06:19:23;;;;;;;7.38;2.53;;;;;;;;;;4949664;29;20564;-78
2022/04/08 06:21:49;;;;;;;5.78;2.78;;;;;;;;;;4949179;29;20508;-79
2022/04/08 06:24:15;;;;;;;7.68;2.67;;;;;;;;;;4950742;29;20028;-79
2022/04/08 06:26:42;;;;;;;3.65;1.40;;;;;;;;;;4951301;28;20042;-78
2022/04/08 06:29:09;;;;;;;1.80;1.30;;;;;;;;;;4946893;29;20044;-78
2022/04/08 06:31:35;;;;;;;2.95;0.90;;;;;;;;;;4949274;29;20455;-78
2022/04/08 06:34:02;;;;;;;3.30;0.90;;;;;;;;;;4953023;29;20470;-78
2022/04/08 06:36:28;;;;;;;2.63;0.85;;;;;;;;;;4949048;29;20401;-78
2022/04/08 06:38:55;;;;;;;8.82;1.00;;;;;;;;;;4952966;29;20024;-78
2022/04/08 06:41:21;;;;;;;7.38;2.50;;;;;;;;;;4950267;29;20602;-78
2022/04/08 06:43:48;;;;;;;22.58;6.93;;;;;;;;;;4948831;29;20459;-78
2022/04/08 06:46:14;;;;;;;20.73;7.10;;;;;;;;;;4948990;29;20026;-78
2022/04/08 06:48:40;;;;;;;13.80;4.18;;;;;;;;;;4951637;28;20023;-78
2022/04/08 06:51:07;;;;;;;5.60;2.33;;;;;;;;;;4951809;28;20023;-78
2022/04/08 06:53:34;;;;;;;6.88;1.92;;;;;;;;;;4950401;29;20043;-78
2022/04/08 06:56:03;;;;;;;3.22;1.77;;;;;;;;;;4949411;29;20023;-78
2022/04/08 06:58:31;;;;;;;9.20;3.67;;;;;;;;;;4948696;29;20019;-78
2022/04/08 07:00:57;;;;;;;7.38;2.78;;;;;;;;;;4948511;29;20035;-78
2022/04/08 07:03:25;;;;;;;4.75;1.75;;;;;;;;;;4948576;29;20031;-78
2022/04/08 07:05:51;;;;;;;5.45;2.38;;;;;;;;;;4950562;29;20042;-79
2022/04/08 07:08:18;;;;;;;5.55;2.55;;;;;;;;;;4948900;29;20027;-78
2022/04/08 07:10:44;;;;;;;6.50;3.13;;;;;;;;;;4948291;29;20041;-78
2022/04/08 07:13:11;;;;;;;11.48;4.10;;;;;;;;;;4948656;29;20024;-77
2022/04/08 07:15:37;;;;;;;4.55;1.70;;;;;;;;;;4948555;29;20038;-79
2022/04/08 07:18:04;;;;;;;4.15;1.52;;;;;;;;;;4951372;29;20023;-78
2022/04/08 07:20:31;;;;;;;2.45;1.23;;;;;;;;;;4949989;29;20408;-78
2022/04/08 07:23:01;;;;;;;5.18;1.67;;;;;;;;;;4949559;28;20023;-78
2022/04/08 07:25:28;;;;;;;2.95;2.00;;;;;;;;;;4951168;29;20037;-79
2022/04/08 07:27:56;;;;;;;4.00;2.00;;;;;;;;;;4951700;29;20035;-78
2022/04/08 07:30:23;;;;;;;3.90;2.22;;;;;;;;;;4956411;29;20499;-78
2022/04/08 07:32:54;;;;;;;6.07;2.10;;;;;;;;;;4953140;29;20045;-78
2022/04/08 07:35:25;;;;;;;3.15;2.10;;;;;;;;;;4955587;29;20034;-78
2022/04/08 07:37:53;;;;;;;2.92;2.03;;;;;;;;;;4951145;29;20097;-78
2022/04/08 07:40:19;;;;;;;5.57;2.35;;;;;;;;;;4951254;29;20042;-78
2022/04/08 07:42:46;;;;;;;3.42;2.28;;;;;;;;;;4950993;29;20508;-78
2022/04/08 07:45:12;;;;;;;2.60;1.60;;;;;;;;;;4952124;29;20038;-78
2022/04/08 07:47:39;;;;;;;4.55;1.92;;;;;;;;;;4954306;29;20036;-78
2022/04/08 07:50:05;;;;;;;1.00;0.90;;;;;;;;;;4951205;29;20031;-77
2022/04/08 07:52:32;;;;;;;3.10;1.00;;;;;;;;;;4950446;29;20019;-78
2022/04/08 07:54:58;;;;;;;0.65;0.65;;;;;;;;;;4949816;29;20097;-78
2022/04/08 07:57:24;;;;;;;2.53;0.90;;;;;;;;;;4951123;29;20459;-78
2022/04/08 07:59:51;;;;;;;3.33;1.40;;;;;;;;;;4954813;29;20061;-78
2022/04/08 08:02:17;;;;;;;2.58;1.00;;;;;;;;;;4951112;29;20039;-78
2022/04/08 08:04:44;;;;;;;1.27;0.80;;;;;;;;;;4950749;29;20037;-79
2022/04/08 08:07:11;;;;;;;2.67;1.35;;;;;;;;;;4950455;29;20023;-78
2022/04/08 08:09:37;;;;;;;3.83;1.13;;;;;;;;;;4950693;29;20497;-78
2022/04/08 08:12:04;;;;;;;1.90;0.90;;;;;;;;;;4944725;29;20023;-79
2022/04/08 08:14:31;;;;;;;3.78;1.52;;;;;;;;;;4955127;29;20053;-78
2022/04/08 08:16:57;;;;;;;2.75;0.70;;;;;;;;;;4950391;29;20038;-78
2022/04/08 08:19:24;;;;;;;1.85;0.90;;;;;;;;;;4954211;29;20039;-80
2022/04/08 08:21:50;;;;;;;2.60;0.60;;;;;;;;;;4946727;29;20038;-79
2022/04/08 08:24:16;;;;;;;4.82;0.85;;;;;;;;;;4951824;29;20023;-79
2022/04/08 08:26:43;;;;;;;1.42;0.70;;;;;;;;;;4953424;29;20053;-79
2022/04/08 08:29:09;;;;;;;2.50;0.60;;;;;;;;;;4950561;29;20039;-78
2022/04/08 08:31:36;;;;;;;3.53;0.75;;;;;;;;;;4949873;29;20042;-78
2022/04/08 08:34:02;;;;;;;5.13;0.80;;;;;;;;;;4950042;28;20030;-78
2022/04/08 08:36:29;;;;;;;1.98;0.70;;;;;;;;;;4948800;29;20040;-78
2022/04/08 08:38:56;;;;;;;1.75;0.85;;;;;;;;;;4944244;29;20024;-78
2022/04/08 08:41:23;;;;;;;2.90;1.10;;;;;;;;;;4950680;29;20035;-77
2022/04/08 08:43:52;;;;;;;2.92;1.00;;;;;;;;;;4954030;29;20507;-80
2022/04/08 08:46:19;;;;;;;2.92;1.30;;;;;;;;;;4936736;29;20031;-80
2022/04/08 08:48:46;;;;;;;2.95;1.10;;;;;;;;;;4949373;29;20035;-79
2022/04/08 08:51:13;;;;;;;2.00;0.82;;;;;;;;;;4940843;29;20540;-78
2022/04/08 08:53:41;;;;;;;3.00;0.90;;;;;;;;;;4952233;29;20566;-79
2022/04/08 08:56:08;;;;;;;1.70;0.88;;;;;;;;;;4950796;29;20043;-79
2022/04/08 08:58:36;;;;;;;2.33;0.90;;;;;;;;;;4949644;29;20031;-79
2022/04/08 09:01:03;;;;;;;2.25;0.77;;;;;;;;;;4948732;29;20045;-75
2022/04/08 09:03:30;;;;;;;2.42;0.80;;;;;;;;;;4956716;28;20024;-74
2022/04/08 09:06:05;;;;;;;2.83;1.20;;;;;;;;;;4953167;29;20026;-75
2022/04/08 09:08:33;;;;;;;5.15;1.92;;;;;;;;;;4951212;29;20033;-76
2022/04/08 09:10:59;;;;;;;3.35;1.05;;;;;;;;;;4937295;29;20039;-75
2022/04/08 09:13:28;;;;;;;4.70;1.50;;;;;;;;;;4953684;29;20035;-74
2022/04/08 09:15:57;;;;;;;6.35;2.15;;;;;;;;;;4949479;29;20393;-73
2022/04/08 09:18:26;;;;;;;3.90;1.98;;;;;;;;;;4949838;29;20030;-75
2022/04/08 09:20:52;;;;;;;6.78;4.13;;;;;;;;;;4938490;29;20031;-75
2022/04/08 09:23:19;;;;;;;7.65;3.13;;;;;;;;;;4952822;29;20039;-75
2022/04/08 09:25:49;;;;;;;3.97;1.30;;;;;;;;;;4948601;29;20388;-75
2022/04/08 09:28:17;;;;;;;5.38;1.73;;;;;;;;;;4949208;29;20061;-75
2022/04/08 09:30:52;;;;;;;3.78;0.90;;;;;;;;;;4952316;29;20031;-75
2022/04/08 09:33:21;;;;;;;3.25;1.10;;;;;;;;;;4950746;29;20023;-76
2022/04/08 09:35:53;;;;;;;2.95;1.02;;;;;;;;;;4953309;29;20420;-76
2022/04/08 09:38:20;;;;;;;2.53;0.98;;;;;;;;;;4948360;29;20039;-76
2022/04/08 09:40:47;;;;;;;4.00;1.10;;;;;;;;;;4935741;29;20045;-77
2022/04/08 09:43:14;;;;;;;4.85;0.80;;;;;;;;;;4948949;29;20039;-76
2022/04/08 09:45:40;;;;;;;5.55;2.40;;;;;;;;;;4948909;28;20052;-76
2022/04/08 09:48:07;;;;;;;6.78;1.15;;;;;;;;;;4950372;29;20496;-76
2022/04/08 09:50:36;;;;;;;2.30;0.90;;;;;;;;;;4950934;29;20019;-76
2022/04/08 09:53:05;;;;;;;4.88;1.08;;;;;;;;;;4949310;29;20437;-76
2022/04/08 09:55:32;;;;;;;3.58;1.25;;;;;;;;;;4948889;29;20503;-76
2022/04/08 09:58:00;;;;;;;8.52;2.30;;;;;;;;;;4948724;29;20035;-76
2022/04/08 10:00:27;;;;;;;3.80;1.20;;;;;;;;;;4948859;29;20054;-75
2022/04/08 10:02:55;;;;;;;4.68;1.42;;;;;;;;;;4947670;29;20038;-76
2022/04/08 10:05:25;;;;;;;7.22;2.38;;;;;;;;;;4953674;29;20030;-76
2022/04/08 10:07:52;;;;;;;4.13;1.20;;;;;;;;;;4953192;29;20027;-76
2022/04/08 10:10:28;;;;;;;8.55;1.67;;;;;;;;;;4948497;29;20031;-76
2022/04/08 10:13:06;;;;;;;5.70;1.50;;;;;;;;;;4948636;29;20026;-76
2022/04/08 10:15:36;;;;;;;8.38;1.27;;;;;;;;;;4948630;29;20036;-75
2022/04/08 10:18:04;;;;;;;3.63;1.30;;;;;;;;;;4951234;29;20419;-76
2022/04/08 10:20:31;;;;;;;3.00;1.27;;;;;;;;;;4949810;29;20031;-76
2022/04/08 10:23:10;;;;;;;5.25;1.38;;;;;;;;;;4952092;29;20053;-76
2022/04/08 10:25:38;;;;;;;3.00;1.08;;;;;;;;;;4949618;29;20027;-76
2022/04/08 10:28:05;;;;;;;2.85;1.13;;;;;;;;;;4947740;29;20110;-76
2022/04/08 10:30:34;;;;;;;3.05;0.98;;;;;;;;;;4947522;29;20030;-77
2022/04/08 10:33:01;;;;;;;4.25;1.20;;;;;;;;;;4950764;29;20015;-76
2022/04/08 10:35:28;;;;;;;4.80;1.30;;;;;;;;;;4949968;29;20035;-76
2022/04/08 10:37:58;;;;;;;4.50;1.40;;;;;;;;;;4948042;29;20111;-76
2022/04/08 10:40:37;;;;;;;2.37;1.07;;;;;;;;;;4947744;29;20035;-76
2022/04/08 10:43:08;;;;;;;2.25;0.93;;;;;;;;;;4947676;29;20042;-75
2022/04/08 10:45:34;;;;;;;3.92;1.23;;;;;;;;;;4947783;29;20386;-75
2022/04/08 10:48:21;;;;;;;5.15;1.10;;;;;;;;;;4951341;29;20031;-75
2022/04/08 10:50:47;;;;;;;5.10;1.10;;;;;;;;;;4951392;29;20047;-76
2022/04/08 10:53:15;;;;;;;4.22;1.17;;;;;;;;;;4948228;29;20023;-76
2022/04/08 10:55:52;;;;;;;7.50;1.38;;;;;;;;;;4947873;29;20029;-74
2022/04/08 10:58:38;;;;;;;3.88;1.48;;;;;;;;;;4947651;29;20023;-73
2022/04/08 11:01:15;;;;;;;5.78;1.83;;;;;;;;;;4934541;29;20105;-73
2022/04/08 11:03:45;;;;;;;6.72;1.50;;;;;;;;;;4947148;29;20024;-73
2022/04/08 11:06:16;;;;;;;2.90;1.17;;;;;;;;;;4939465;29;20023;-73
2022/04/08 11:08:43;;;;;;;5.60;1.55;;;;;;;;;;4950703;29;20078;-73
2022/04/08 11:11:11;;;;;;;6.25;1.60;;;;;;;;;;4948485;29;20030;-74
2022/04/08 11:13:40;;;;;;;2.55;1.20;;;;;;;;;;4936313;29;20031;-75
2022/04/08 11:16:07;;;;;;;3.57;1.20;;;;;;;;;;4948254;29;20031;-75
2022/04/08 11:18:33;;;;;;;6.63;1.25;;;;;;;;;;4948611;29;20041;-75
2022/04/08 11:21:00;;;;;;;4.13;1.65;;;;;;;;;;4952314;29;20038;-75
2022/04/08 11:23:27;;;;;;;3.47;1.20;;;;;;;;;;4949618;29;20031;-74
2022/04/08 11:25:54;;;;;;;9.00;1.30;;;;;;;;;;4948862;29;20035;-76
2022/04/08 11:28:23;;;;;;;11.90;1.50;;;;;;;;;;4948713;29;20051;-75
2022/04/08 11:30:57;;;;;;;5.97;1.65;;;;;;;;;;4948274;29;20033;-75
2022/04/08 11:33:24;;;;;;;6.75;1.60;;;;;;;;;;4949263;29;20516;-75
2022/04/08 11:36:03;;;;;;;4.25;1.48;;;;;;;;;;4951578;29;20027;-75
2022/04/08 11:38:30;;;;;;;4.03;1.63;;;;;;;;;;4951725;29;20023;-75
2022/04/08 11:40:57;;;;;;;6.22;1.63;;;;;;;;;;4947724;29;20038;-74
2022/04/08 11:43:24;;;;;;;6.57;1.48;;;;;;;;;;4946453;29;20059;-74
2022/04/08 11:45:51;;;;;;;4.63;1.50;;;;;;;;;;4948032;29;20022;-73
2022/04/08 11:48:20;;;;;;;6.03;1.70;;;;;;;;;;4947844;29;20090;-74
2022/04/08 11:50:47;;;;;;;4.43;1.17;;;;;;;;;;4948830;29;20030;-74
2022/04/08 11:53:15;;;;;;;6.20;1.20;;;;;;;;;;4951794;29;20031;-73
2022/04/08 11:55:51;;;;;;;7.68;1.63;;;;;;;;;;4951050;29;20494;-74
2022/04/08 11:58:18;;;;;;;3.17;1.13;;;;;;;;;;4948802;29;20038;-73
2022/04/08 12:00:47;;;;;;;3.97;1.23;;;;;;;;;;4947793;29;20058;-73
2022/04/08 12:03:20;;;;;;;4.35;1.45;;;;;;;;;;4949577;29;20035;-74
2022/04/08 12:05:48;;;;;;;2.78;1.30;;;;;;;;;;4952396;29;20031;-74
2022/04/08 12:08:14;;;;;;;3.28;1.30;;;;;;;;;;4947911;29;20019;-74
2022/04/08 12:10:40;;;;;;;8.75;1.38;;;;;;;;;;4953008;28;20031;-74
2022/04/08 12:13:34;;;;;;;4.57;1.40;;;;;;;;;;4954840;29;20517;-73
2022/04/08 12:16:00;;;;;;;6.30;1.77;;;;;;;;;;4948943;29;20043;-73
2022/04/08 12:18:27;;;;;;;4.68;1.42;;;;;;;;;;4954589;29;20090;-74
2022/04/08 12:20:54;;;;;;;4.82;1.52;;;;;;;;;;4944700;29;20038;-74
2022/04/08 12:23:22;;;;;;;5.30;1.48;;;;;;;;;;4955694;29;20020;-74
2022/04/08 12:25:55;;;;;;;4.05;1.20;;;;;;;;;;4951106;29;20027;-75
2022/04/08 12:28:31;;;;;;;4.13;1.70;;;;;;;;;;4954488;29;20051;-73
2022/04/08 12:31:00;;;;;;;5.03;1.20;;;;;;;;;;4950781;29;20042;-74
2022/04/08 12:33:26;;;;;;;3.25;1.20;;;;;;;;;;4950913;29;20019;-74
2022/04/08 12:35:54;;;;;;;4.03;1.23;;;;;;;;;;4939417;29;20038;-73
2022/04/08 12:38:20;;;;;;;5.72;1.08;;;;;;;;;;4951168;29;20034;-74
2022/04/08 12:40:47;;;;;;;6.07;1.15;;;;;;;;;;4936892;29;20041;-74
2022/04/08 12:43:14;;;;;;;3.50;1.30;;;;;;;;;;4949543;29;20046;-74
2022/04/08 12:45:40;;;;;;;6.30;1.58;;;;;;;;;;4949263;29;20510;-74
2022/04/08 12:48:07;;;;;;;3.25;0.98;;;;;;;;;;4952448;29;20045;-74
2022/04/08 12:50:35;;;;;;;5.60;1.15;;;;;;;;;;4955124;29;20027;-73
2022/04/08 12:53:02;;;;;;;5.25;1.58;;;;;;;;;;4950942;29;20027;-74
2022/04/08 12:55:28;;;;;;;4.18;1.02;;;;;;;;;;4953499;29;20562;-74
2022/04/08 12:57:56;;;;;;;7.03;1.60;;;;;;;;;;4952180;29;20027;-73
2022/04/08 13:00:23;;;;;;;7.90;1.50;;;;;;;;;;4951210;29;20032;-73
2022/04/08 13:02:49;;;;;;;5.07;1.08;;;;;;;;;;4954992;28;20035;-73
2022/04/08 13:05:16;;;;;;;6.40;1.88;;;;;;;;;;4950763;29;20023;-73
2022/04/08 13:07:42;;;;;;;5.68;1.30;;;;;;;;;;4950457;29;20416;-74
2022/04/08 13:10:09;;;;;;;9.00;1.20;;;;;;;;;;4950147;29;20041;-73
2022/04/08 13:12:35;;;;;;;5.28;1.00;;;;;;;;;;4953294;29;20043;-73
2022/04/08 13:15:05;;;;;;;4.00;1.08;;;;;;;;;;4953482;29;20015;-73
2022/04/08 13:17:32;;;;;;;3.30;1.13;;;;;;;;;;4951985;29;20504;-73
2022/04/08 13:19:58;;;;;;;5.32;1.63;;;;;;;;;;4950750;29;20057;-73
2022/04/08 13:22:25;;;;;;;6.40;1.20;;;;;;;;;;4949749;28;20035;-74
2022/04/08 13:24:51;;;;;;;3.45;1.17;;;;;;;;;;4953501;29;20392;-73
2022/04/08 13:27:17;;;;;;;4.13;1.13;;;;;;;;;;4951534;29;20027;-73
2022/04/08 13:29:47;;;;;;;4.38;1.08;;;;;;;;;;4953125;29;20086;-73
2022/04/08 13:32:18;;;;;;;5.85;1.10;;;;;;;;;;4949698;29;20031;-72
2022/04/08 13:34:44;;;;;;;3.70;1.13;;;;;;;;;;4951131;29;20039;-70
2022/04/08 13:37:11;;;;;;;1.33;1.00;;;;;;;;;;4949822;29;20028;-71
2022/04/08 13:39:38;;;;;;;4.68;1.05;;;;;;;;;;4949630;29;20547;-71
2022/04/08 13:42:05;;;;;;;5.93;1.08;;;;;;;;;;4953093;29;20050;-71
2022/04/08 13:44:33;;;;;;;3.40;0.90;;;;;;;;;;4953643;29;20033;-71
2022/04/08 13:46:59;;;;;;;4.00;0.98;;;;;;;;;;4953562;29;20050;-71
2022/04/08 13:49:26;;;;;;;6.05;0.90;;;;;;;;;;4949352;29;20038;-70
2022/04/08 13:51:52;;;;;;;5.95;1.10;;;;;;;;;;4949132;29;20420;-71
2022/04/08 13:54:19;;;;;;;1.50;0.68;;;;;;;;;;4953036;29;20023;-71
2022/04/08 13:56:45;;;;;;;4.13;1.33;;;;;;;;;;4953045;29;20050;-70
2022/04/08 13:59:11;;;;;;;6.90;2.05;;;;;;;;;;4950408;29;20031;-71
2022/04/08 14:01:38;;;;;;;2.92;1.02;;;;;;;;;;4953218;29;20042;-71
2022/04/08 14:04:06;;;;;;;4.82;1.08;;;;;;;;;;4949631;29;20408;-70
2022/04/08 14:06:33;;;;;;;1.83;0.90;;;;;;;;;;4948550;28;20015;-70
2022/04/08 14:08:59;;;;;;;3.55;1.40;;;;;;;;;;4943290;29;20504;-69
2022/04/08 14:11:26;;;;;;;2.30;0.70;;;;;;;;;;4950142;29;20023;-70
2022/04/08 14:13:52;;;;;;;5.88;0.93;;;;;;;;;;4953609;29;20050;-69
2022/04/08 14:16:19;;;;;;;5.47;1.00;;;;;;;;;;4949361;29;20035;-70
2022/04/08 14:18:45;;;;;;;7.13;0.90;;;;;;;;;;4952707;29;20033;-70
2022/04/08 14:21:11;;;;;;;4.32;1.27;;;;;;;;;;4951393;29;20034;-70
2022/04/08 14:23:38;;;;;;;2.92;1.17;;;;;;;;;;4953559;29;20035;-70
2022/04/08 14:26:04;;;;;;;1.83;0.90;;;;;;;;;;4949536;29;20042;-70
2022/04/08 14:28:31;;;;;;;2.67;0.98;;;;;;;;;;4949215;29;20089;-70
2022/04/08 14:30:57;;;;;;;3.17;1.00;;;;;;;;;;4949551;29;20031;-70
2022/04/08 14:33:24;;;;;;;2.88;1.17;;;;;;;;;;4948682;28;20412;-70
2022/04/08 14:35:50;;;;;;;3.40;1.05;;;;;;;;;;4953018;29;20033;-70
2022/04/08 14:38:16;;;;;;;2.95;0.90;;;;;;;;;;4949518;29;20428;-70
2022/04/08 14:40:43;;;;;;;4.82;0.88;;;;;;;;;;4948505;29;20035;-70
2022/04/08 14:43:09;;;;;;;2.63;0.85;;;;;;;;;;4952949;29;20415;-70